Time;durP1;ratioP1;P1;durP2;ratioP2;P2;SDS_P1;SDS_P2;PMS_P1;PMS_P2;Temp;Humidity;BMP_temperature;BMP_pressure;BME280_temperature;BME280_humidity;BME280_pressure;Samples;Min_cycle;Max_cycle;Signal;HPM_P1;HPM_P2
2020/12/21 00:00:37;;;;;;;18.67;15.67;;;7.90;99.90;;;;;;5070526;28;20440;-48
2020/12/21 00:03:04;;;;;;;17.73;14.20;;;7.50;99.90;;;;;;5053680;28;20463;-49
2020/12/21 00:05:31;;;;;;;18.43;14.60;;;7.50;99.90;;;;;;5055120;28;20428;-49
2020/12/21 00:08:01;;;;;;;18.87;14.50;;;7.50;99.90;;;;;;5067443;28;20459;-48
2020/12/21 00:10:30;;;;;;;17.93;14.43;;;7.40;99.90;;;;;;5066511;28;20575;-48
2020/12/21 00:12:57;;;;;;;20.10;14.00;;;7.50;99.90;;;;;;5055095;28;20433;-51
2020/12/21 00:15:24;;;;;;;22.80;16.40;;;7.70;99.90;;;;;;5055395;28;20437;-51
2020/12/21 00:17:50;;;;;;;21.80;14.03;;;7.70;99.90;;;;;;5055048;28;20448;-51
2020/12/21 00:20:18;;;;;;;18.70;14.90;;;7.40;99.90;;;;;;5054958;28;20461;-52
2020/12/21 00:22:45;;;;;;;16.63;13.50;;;7.80;99.90;;;;;;5053482;28;20470;-50
2020/12/21 00:25:11;;;;;;;17.57;14.20;;;7.50;99.90;;;;;;5033536;28;20464;-51
2020/12/21 00:27:38;;;;;;;18.30;14.33;;;7.40;99.90;;;;;;5034974;28;20458;-51
2020/12/21 00:30:05;;;;;;;21.00;15.53;;;7.40;99.90;;;;;;5034557;28;21004;-51
2020/12/21 00:32:33;;;;;;;21.43;15.73;;;7.50;99.90;;;;;;5034435;28;20448;-51
2020/12/21 00:34:59;;;;;;;16.47;13.13;;;7.40;99.90;;;;;;5034915;28;20433;-49
2020/12/21 00:37:27;;;;;;;18.97;14.07;;;7.40;99.90;;;;;;5047483;28;20944;-50
2020/12/21 00:39:53;;;;;;;16.93;14.17;;;6.80;99.90;;;;;;5074251;28;20901;-50
2020/12/21 00:42:20;;;;;;;17.93;14.87;;;7.60;99.90;;;;;;5074351;28;20428;-51
2020/12/21 00:44:47;;;;;;;18.60;13.90;;;7.50;99.90;;;;;;5073308;28;20445;-50
2020/12/21 00:47:13;;;;;;;19.87;14.40;;;7.60;99.90;;;;;;5074595;28;20808;-50
2020/12/21 00:49:40;;;;;;;16.83;13.80;;;7.40;99.90;;;;;;5074349;28;21025;-48
2020/12/21 00:52:06;;;;;;;19.50;15.03;;;7.40;99.90;;;;;;5073321;28;20451;-49
2020/12/21 00:54:34;;;;;;;16.90;13.40;;;7.40;99.90;;;;;;5072645;28;20814;-50
2020/12/21 00:57:01;;;;;;;18.70;14.10;;;7.50;99.90;;;;;;5074536;28;20649;-50
2020/12/21 00:59:27;;;;;;;18.43;14.23;;;7.40;99.90;;;;;;5074240;28;20466;-50
2020/12/21 01:01:54;;;;;;;17.03;14.57;;;7.40;99.90;;;;;;5061107;28;20440;-50
2020/12/21 01:04:21;;;;;;;17.60;13.77;;;7.60;99.90;;;;;;5052538;28;20464;-50
2020/12/21 01:06:53;;;;;;;16.33;13.03;;;7.40;99.90;;;;;;5053976;28;20436;-50
2020/12/21 01:09:19;;;;;;;18.93;14.40;;;7.50;99.90;;;;;;5068075;28;20551;-49
2020/12/21 01:11:47;;;;;;;17.60;12.87;;;7.30;99.90;;;;;;5053154;28;20486;-50
2020/12/21 01:14:13;;;;;;;18.23;14.20;;;7.20;99.90;;;;;;5053626;28;20520;-50
2020/12/21 01:16:40;;;;;;;20.33;15.73;;;7.10;99.90;;;;;;5053915;28;20432;-50
2020/12/21 01:19:06;;;;;;;16.70;14.10;;;7.10;99.90;;;;;;5053990;28;20823;-50
2020/12/21 01:21:33;;;;;;;18.60;14.43;;;7.20;99.90;;;;;;5054108;28;20481;-49
2020/12/21 01:24:00;;;;;;;22.30;15.00;;;7.30;99.90;;;;;;5053610;28;20425;-50
2020/12/21 01:26:28;;;;;;;16.40;14.37;;;7.30;99.90;;;;;;5052578;28;20886;-48
2020/12/21 01:28:56;;;;;;;18.70;14.27;;;7.20;99.90;;;;;;5053596;28;20452;-48
2020/12/21 01:31:23;;;;;;;20.10;13.90;;;7.10;99.90;;;;;;5052169;28;20569;-50
2020/12/21 01:33:51;;;;;;;19.33;14.60;;;7.30;99.90;;;;;;5053145;28;20433;-49
2020/12/21 01:36:18;;;;;;;20.00;14.10;;;7.60;99.90;;;;;;5053589;28;20448;-48
2020/12/21 01:38:45;;;;;;;19.60;14.97;;;7.50;99.90;;;;;;5058311;28;20478;-49
2020/12/21 01:41:12;;;;;;;18.70;15.10;;;7.20;99.90;;;;;;5073543;28;20442;-51
2020/12/21 01:43:38;;;;;;;17.63;13.47;;;7.30;99.90;;;;;;5072986;28;20438;-49
2020/12/21 01:46:09;;;;;;;19.37;14.40;;;7.10;99.90;;;;;;5073254;28;20431;-49
2020/12/21 01:48:37;;;;;;;16.97;13.60;;;7.20;99.90;;;;;;5073093;28;20426;-50
2020/12/21 01:51:06;;;;;;;17.80;14.33;;;7.40;99.90;;;;;;5073185;28;20505;-50
2020/12/21 01:53:34;;;;;;;19.63;14.93;;;7.10;99.90;;;;;;5072909;28;20922;-49
2020/12/21 01:56:03;;;;;;;20.57;15.47;;;7.20;99.90;;;;;;5073119;28;20435;-49
2020/12/21 01:58:30;;;;;;;21.87;14.13;;;7.10;99.90;;;;;;5072859;28;20449;-50
2020/12/21 02:00:58;;;;;;;17.10;14.17;;;7.00;99.90;;;;;;5067428;28;20444;-49
2020/12/21 02:03:26;;;;;;;20.17;14.63;;;7.20;99.90;;;;;;5052634;28;20430;-49
2020/12/21 02:05:53;;;;;;;19.47;13.97;;;7.10;99.90;;;;;;5052966;28;20781;-49
2020/12/21 02:08:19;;;;;;;18.07;13.90;;;7.40;99.90;;;;;;5064197;28;20976;-48
2020/12/21 02:10:46;;;;;;;17.80;14.57;;;7.30;99.90;;;;;;5067385;28;20912;-48
2020/12/21 02:13:12;;;;;;;20.97;14.13;;;7.40;99.90;;;;;;5072453;28;20792;-48
2020/12/21 02:15:39;;;;;;;17.93;14.30;;;7.30;99.90;;;;;;5072700;28;20840;-49
2020/12/21 02:18:05;;;;;;;18.80;14.80;;;7.60;99.90;;;;;;5072914;28;20424;-49
2020/12/21 02:20:32;;;;;;;15.60;13.30;;;7.40;99.90;;;;;;5072811;28;20463;-50
2020/12/21 02:22:59;;;;;;;18.73;15.20;;;7.40;99.90;;;;;;5072328;28;20813;-49
2020/12/21 02:25:26;;;;;;;17.40;13.60;;;7.30;99.90;;;;;;5072521;28;20802;-49
2020/12/21 02:27:52;;;;;;;16.90;13.97;;;7.60;99.90;;;;;;5072555;28;20804;-49
2020/12/21 02:30:19;;;;;;;18.03;15.27;;;6.70;99.90;;;;;;5072334;28;20478;-49
2020/12/21 02:32:45;;;;;;;19.53;15.30;;;7.30;99.90;;;;;;5072356;28;20413;-50
2020/12/21 02:35:12;;;;;;;20.70;14.90;;;7.20;99.90;;;;;;5072394;28;20919;-50
2020/12/21 02:37:41;;;;;;;18.07;14.70;;;7.10;99.90;;;;;;5068011;28;20452;-51
2020/12/21 02:40:07;;;;;;;18.37;14.87;;;7.30;99.90;;;;;;5072189;28;20983;-50
2020/12/21 02:42:34;;;;;;;17.90;14.70;;;7.30;99.90;;;;;;5070836;28;20614;-50
2020/12/21 02:45:01;;;;;;;19.70;14.90;;;7.20;99.90;;;;;;5072374;28;20926;-49
2020/12/21 02:47:28;;;;;;;22.90;14.17;;;7.20;99.90;;;;;;5072129;28;20523;-49
2020/12/21 02:49:54;;;;;;;21.67;15.67;;;7.20;99.90;;;;;;5072024;28;20974;-49
2020/12/21 02:52:21;;;;;;;21.97;17.57;;;7.20;99.90;;;;;;5071888;28;20987;-50
2020/12/21 02:54:48;;;;;;;18.20;14.90;;;7.00;99.90;;;;;;5071974;28;20434;-49
2020/12/21 02:57:15;;;;;;;17.07;15.00;;;6.80;99.90;;;;;;5071849;28;20431;-50
2020/12/21 02:59:42;;;;;;;22.43;15.57;;;6.90;99.90;;;;;;5072025;28;20462;-50
2020/12/21 03:02:09;;;;;;;19.90;15.27;;;7.30;99.90;;;;;;5056686;28;20836;-49
2020/12/21 03:04:35;;;;;;;18.43;14.80;;;7.00;99.90;;;;;;5051611;28;20428;-49
2020/12/21 03:07:02;;;;;;;20.83;14.70;;;7.10;99.90;;;;;;5054518;28;20458;-49
2020/12/21 03:09:29;;;;;;;20.33;15.17;;;7.10;99.90;;;;;;5071534;28;20466;-49
2020/12/21 03:11:56;;;;;;;17.60;15.43;;;7.40;99.90;;;;;;5051679;28;20443;-48
2020/12/21 03:14:23;;;;;;;20.40;15.17;;;7.30;99.90;;;;;;5050151;28;20538;-49
2020/12/21 03:16:49;;;;;;;16.60;14.33;;;7.40;99.90;;;;;;5051601;28;20879;-49
2020/12/21 03:19:16;;;;;;;15.80;13.10;;;7.50;99.90;;;;;;5051641;28;20452;-50
2020/12/21 03:21:42;;;;;;;20.03;15.90;;;7.30;99.90;;;;;;5051770;28;20432;-49
2020/12/21 03:24:09;;;;;;;22.20;16.43;;;7.30;99.90;;;;;;5051461;28;20490;-49
2020/12/21 03:26:35;;;;;;;19.63;15.53;;;7.20;99.90;;;;;;5051580;28;20411;-50
2020/12/21 03:29:03;;;;;;;19.40;14.50;;;7.20;99.90;;;;;;5051788;28;20497;-49
2020/12/21 03:31:29;;;;;;;19.10;14.77;;;7.30;99.90;;;;;;5051691;28;20472;-49
2020/12/21 03:33:56;;;;;;;19.23;16.17;;;7.40;99.90;;;;;;5050132;28;20545;-49
2020/12/21 03:36:22;;;;;;;18.87;15.37;;;7.40;99.90;;;;;;5054866;28;20435;-51
2020/12/21 03:38:49;;;;;;;19.47;16.20;;;7.60;99.90;;;;;;5066769;28;20513;-49
2020/12/21 03:41:15;;;;;;;16.60;14.47;;;7.40;99.90;;;;;;5075651;28;20837;-49
2020/12/21 03:43:42;;;;;;;16.67;14.73;;;7.30;99.90;;;;;;5075209;28;20459;-49
2020/12/21 03:46:09;;;;;;;17.20;15.17;;;7.50;99.90;;;;;;5075122;28;20474;-49
2020/12/21 03:48:36;;;;;;;20.67;15.87;;;7.30;99.90;;;;;;5074183;28;20447;-50
2020/12/21 03:51:02;;;;;;;21.03;16.47;;;7.50;99.90;;;;;;5075077;28;20478;-49
2020/12/21 03:53:29;;;;;;;18.83;15.47;;;7.40;99.90;;;;;;5075209;28;20891;-49
2020/12/21 03:55:55;;;;;;;20.07;16.20;;;7.70;99.90;;;;;;5075466;28;20908;-50
2020/12/21 03:58:22;;;;;;;21.40;16.10;;;7.60;99.90;;;;;;5075243;28;20446;-49
2020/12/21 04:00:48;;;;;;;18.73;15.33;;;7.50;99.90;;;;;;5071145;28;20515;-50
2020/12/21 04:03:15;;;;;;;20.20;16.40;;;7.40;99.90;;;;;;5054654;28;20519;-49
2020/12/21 04:05:42;;;;;;;18.87;16.87;;;7.50;99.90;;;;;;5055044;28;20468;-49
2020/12/21 04:08:08;;;;;;;19.10;16.33;;;7.60;99.90;;;;;;5069149;28;20422;-50
2020/12/21 04:10:35;;;;;;;19.73;16.90;;;7.70;99.90;;;;;;5065336;28;20835;-50
2020/12/21 04:13:01;;;;;;;21.10;17.33;;;7.50;99.90;;;;;;5055019;28;20940;-49
2020/12/21 04:15:28;;;;;;;22.53;18.50;;;7.60;99.90;;;;;;5055010;28;20936;-50
2020/12/21 04:17:54;;;;;;;19.43;15.60;;;7.60;99.90;;;;;;5054994;28;20440;-49
2020/12/21 04:20:22;;;;;;;19.10;16.63;;;7.30;99.90;;;;;;5055116;28;20446;-50
2020/12/21 04:22:49;;;;;;;22.03;16.93;;;7.50;99.90;;;;;;5054402;28;20527;-49
2020/12/21 04:25:15;;;;;;;21.47;17.40;;;7.30;99.90;;;;;;5054827;28;20445;-50
2020/12/21 04:27:42;;;;;;;21.53;17.50;;;7.50;99.90;;;;;;5054806;28;20800;-50
2020/12/21 04:30:08;;;;;;;20.97;16.60;;;7.40;99.90;;;;;;5054720;28;20996;-49
2020/12/21 04:32:35;;;;;;;19.30;16.93;;;7.50;99.90;;;;;;5054373;28;20433;-50
2020/12/21 04:35:01;;;;;;;17.50;15.70;;;7.30;99.90;;;;;;5054682;28;20445;-50
2020/12/21 04:37:29;;;;;;;20.80;15.70;;;7.80;99.90;;;;;;5057997;28;20451;-50
2020/12/21 04:39:56;;;;;;;19.20;15.80;;;7.50;99.90;;;;;;5075500;28;20452;-48
2020/12/21 04:42:24;;;;;;;23.50;16.87;;;7.70;99.90;;;;;;5075255;28;20505;-50
2020/12/21 04:44:51;;;;;;;19.27;16.87;;;7.40;99.90;;;;;;5074402;28;20460;-50
2020/12/21 04:47:17;;;;;;;24.90;18.00;;;7.50;99.90;;;;;;5074212;28;20907;-50
2020/12/21 04:49:45;;;;;;;23.53;17.57;;;7.40;99.90;;;;;;5074395;28;20454;-49
2020/12/21 04:52:13;;;;;;;20.93;17.63;;;7.10;99.90;;;;;;5074160;28;20485;-50
2020/12/21 04:54:41;;;;;;;21.80;17.77;;;7.20;99.90;;;;;;5073765;28;20505;-50
2020/12/21 04:57:07;;;;;;;24.57;17.90;;;7.50;99.90;;;;;;5074106;28;20993;-50
2020/12/21 04:59:34;;;;;;;21.87;17.50;;;7.50;99.90;;;;;;5072766;28;20471;-50
2020/12/21 05:02:04;;;;;;;24.37;18.10;;;7.10;99.90;;;;;;5060032;28;20899;-50
2020/12/21 05:04:31;;;;;;;25.00;17.23;;;7.30;99.90;;;;;;5053649;28;20433;-50
2020/12/21 05:06:58;;;;;;;22.90;17.03;;;7.20;99.90;;;;;;5060521;28;20544;-50
2020/12/21 05:09:25;;;;;;;20.67;17.27;;;7.20;99.90;;;;;;5073755;28;20462;-50
2020/12/21 05:12:02;;;;;;;23.07;16.43;;;7.10;99.90;;;;;;5033871;28;20480;-50
2020/12/21 05:14:33;;;;;;;23.80;18.80;;;7.30;99.90;;;;;;5033870;28;20440;-50
2020/12/21 05:17:11;;;;;;;21.33;16.90;;;7.10;99.90;;;;;;5033873;28;20496;-49
2020/12/21 05:19:38;;;;;;;25.63;18.00;;;7.10;99.90;;;;;;5033650;28;20452;-50
2020/12/21 05:22:10;;;;;;;23.23;18.47;;;7.00;99.90;;;;;;5034223;28;20433;-50
2020/12/21 05:24:36;;;;;;;22.70;18.10;;;7.10;99.90;;;;;;5033449;28;20440;-50
2020/12/21 05:27:13;;;;;;;21.33;17.67;;;7.20;99.90;;;;;;5033923;28;20915;-49
2020/12/21 05:29:40;;;;;;;26.03;19.27;;;7.30;99.90;;;;;;5033443;28;20461;-49
2020/12/21 05:32:11;;;;;;;24.77;19.17;;;6.70;99.90;;;;;;5033673;28;20861;-50
2020/12/21 05:34:37;;;;;;;23.80;17.50;;;7.10;99.90;;;;;;5033191;28;20897;-50
2020/12/21 05:37:11;;;;;;;22.20;17.47;;;7.00;99.90;;;;;;5051959;28;20499;-50
2020/12/21 05:39:48;;;;;;;25.57;18.40;;;7.00;99.90;;;;;;5074097;28;20964;-49
2020/12/21 05:42:15;;;;;;;23.50;17.30;;;7.30;99.90;;;;;;5073816;28;20481;-50
2020/12/21 05:44:54;;;;;;;24.70;21.00;;;7.10;99.90;;;;;;5073355;28;21062;-49
2020/12/21 05:47:21;;;;;;;33.70;25.87;;;7.20;99.90;;;;;;5072320;28;20451;-49
2020/12/21 05:49:56;;;;;;;24.33;18.10;;;7.30;99.90;;;;;;5073512;28;20458;-50
2020/12/21 05:52:31;;;;;;;25.67;18.90;;;7.40;99.90;;;;;;5071766;28;20443;-50
2020/12/21 05:55:03;;;;;;;22.83;17.13;;;7.20;99.90;;;;;;5073173;28;20430;-50
2020/12/21 05:57:32;;;;;;;20.27;15.83;;;7.50;99.90;;;;;;5072958;28;20436;-50
2020/12/21 05:59:59;;;;;;;22.60;17.03;;;7.40;99.90;;;;;;5073120;28;20450;-50
2020/12/21 06:02:26;;;;;;;20.53;15.90;;;7.60;99.90;;;;;;5055233;28;20902;-50
2020/12/21 06:05:00;;;;;;;24.43;18.43;;;7.40;99.90;;;;;;5052895;28;20446;-50
2020/12/21 06:07:29;;;;;;;30.30;17.30;;;7.50;99.90;;;;;;5058550;28;20559;-50
2020/12/21 06:09:59;;;;;;;23.80;17.50;;;7.40;99.90;;;;;;5067621;28;20490;-50
2020/12/21 06:12:28;;;;;;;23.23;17.40;;;7.40;99.90;;;;;;5052596;28;20870;-50
2020/12/21 06:15:01;;;;;;;23.67;16.43;;;7.50;99.90;;;;;;5052999;28;20433;-50
2020/12/21 06:17:29;;;;;;;52.80;23.37;;;7.30;99.90;;;;;;5053103;28;20574;-50
2020/12/21 06:20:07;;;;;;;29.70;18.67;;;7.50;99.90;;;;;;5053190;28;20456;-50
2020/12/21 06:22:34;;;;;;;29.97;19.57;;;7.20;99.90;;;;;;5052528;28;20435;-50
2020/12/21 06:25:01;;;;;;;28.17;19.63;;;7.20;99.90;;;;;;5052603;28;20581;-50
2020/12/21 06:27:38;;;;;;;32.60;19.60;;;7.20;99.90;;;;;;5052546;28;20432;-50
2020/12/21 06:30:07;;;;;;;34.50;19.23;;;7.00;99.90;;;;;;5052645;28;20872;-50
2020/12/21 06:32:34;;;;;;;33.63;20.23;;;7.20;99.90;;;;;;5052247;28;20429;-49
2020/12/21 06:35:01;;;;;;;44.17;22.40;;;6.70;99.90;;;;;;5053043;28;20498;-49
2020/12/21 06:37:28;;;;;;;30.03;18.63;;;6.90;99.90;;;;;;5065368;28;20458;-49
2020/12/21 06:39:59;;;;;;;26.30;18.40;;;7.10;99.90;;;;;;5070787;28;20475;-50
2020/12/21 06:42:26;;;;;;;26.10;17.50;;;6.90;99.90;;;;;;5071607;28;20484;-50
2020/12/21 06:44:54;;;;;;;23.80;17.10;;;7.10;99.90;;;;;;5072460;28;20431;-50
2020/12/21 06:47:23;;;;;;;24.70;17.50;;;7.20;99.90;;;;;;5072381;28;20485;-50
2020/12/21 06:49:50;;;;;;;25.10;17.80;;;7.20;99.90;;;;;;5071739;28;20951;-50
2020/12/21 06:52:17;;;;;;;52.50;25.03;;;7.20;99.90;;;;;;5072088;28;20581;-51
2020/12/21 06:54:44;;;;;;;33.40;21.30;;;7.10;99.90;;;;;;5071869;28;20439;-50
2020/12/21 06:57:11;;;;;;;24.90;18.80;;;7.30;99.90;;;;;;5072137;28;20431;-51
2020/12/21 06:59:38;;;;;;;25.10;17.47;;;7.30;99.90;;;;;;5071998;28;20451;-48
2020/12/21 07:02:05;;;;;;;26.83;18.33;;;6.80;99.90;;;;;;5057380;28;20926;-49
2020/12/21 07:04:34;;;;;;;26.80;18.20;;;6.90;99.90;;;;;;5050140;28;20941;-48
2020/12/21 07:07:03;;;;;;;23.20;18.10;;;7.20;99.90;;;;;;5055724;28;20458;-49
2020/12/21 07:09:31;;;;;;;25.03;20.10;;;6.90;99.90;;;;;;5071559;28;20977;-49
2020/12/21 07:11:59;;;;;;;22.33;15.30;;;6.90;99.90;;;;;;5051886;28;20480;-49
2020/12/21 07:14:26;;;;;;;28.37;18.00;;;7.10;99.90;;;;;;5049461;28;20531;-49
2020/12/21 07:17:04;;;;;;;26.13;16.90;;;6.60;99.90;;;;;;5052095;28;20798;-50
2020/12/21 07:19:33;;;;;;;23.80;16.87;;;7.20;99.90;;;;;;5052238;28;20452;-49
2020/12/21 07:22:01;;;;;;;25.87;16.90;;;6.80;99.90;;;;;;5051840;28;20513;-49
2020/12/21 07:24:27;;;;;;;23.67;17.77;;;7.10;99.90;;;;;;5051669;28;20425;-50
2020/12/21 07:26:54;;;;;;;27.60;17.27;;;6.30;99.90;;;;;;5049730;28;20451;-50
2020/12/21 07:29:21;;;;;;;29.67;19.83;;;6.80;99.90;;;;;;5051580;28;20470;-50
2020/12/21 07:31:48;;;;;;;29.07;18.90;;;6.80;99.90;;;;;;5051624;28;20991;-50
2020/12/21 07:34:15;;;;;;;27.17;19.37;;;6.80;99.90;;;;;;5051267;28;20909;-50
2020/12/21 07:36:42;;;;;;;30.53;20.03;;;6.70;99.90;;;;;;5050200;28;20439;-50
2020/12/21 07:39:12;;;;;;;23.10;16.80;;;6.70;99.90;;;;;;5069645;28;20470;-50
2020/12/21 07:41:40;;;;;;;24.43;16.30;;;6.70;99.90;;;;;;5071131;28;20500;-50
2020/12/21 07:44:10;;;;;;;19.57;14.57;;;6.90;99.90;;;;;;5071106;28;20430;-50
2020/12/21 07:46:43;;;;;;;27.90;19.43;;;6.80;99.90;;;;;;5071035;28;20473;-50
2020/12/21 07:49:11;;;;;;;21.47;17.80;;;6.80;99.90;;;;;;5072404;28;21013;-48
2020/12/21 07:51:41;;;;;;;25.67;17.07;;;6.80;99.90;;;;;;5073227;28;20482;-49
2020/12/21 07:54:11;;;;;;;26.93;18.60;;;6.70;99.90;;;;;;5071671;28;20446;-51
2020/12/21 07:56:37;;;;;;;24.43;16.80;;;6.90;99.90;;;;;;5071728;28;20431;-50
2020/12/21 07:59:12;;;;;;;24.23;17.37;;;6.70;99.90;;;;;;5071256;28;20442;-50
2020/12/21 08:01:41;;;;;;;21.80;16.70;;;6.80;99.90;;;;;;5060020;28;20430;-50
2020/12/21 08:04:15;;;;;;;21.50;15.73;;;6.90;99.90;;;;;;5051036;28;20513;-50
2020/12/21 08:06:42;;;;;;;22.80;16.10;;;6.80;99.90;;;;;;5051013;28;20431;-50
2020/12/21 08:09:09;;;;;;;19.67;16.33;;;6.70;99.90;;;;;;5063170;28;20517;-50
2020/12/21 08:11:37;;;;;;;25.13;17.20;;;6.70;99.90;;;;;;5048376;28;20477;-49
2020/12/21 08:14:06;;;;;;;21.97;15.80;;;6.90;99.90;;;;;;5031142;28;20436;-49
2020/12/21 08:16:33;;;;;;;19.30;15.50;;;7.00;99.90;;;;;;5029930;28;20850;-54
2020/12/21 08:19:00;;;;;;;18.17;15.10;;;7.00;99.90;;;;;;5031110;28;20444;-49
2020/12/21 08:21:28;;;;;;;22.97;15.23;;;7.10;99.90;;;;;;5032454;28;20439;-50
2020/12/21 08:23:55;;;;;;;18.70;15.17;;;7.20;99.90;;;;;;5034752;28;20949;-50
2020/12/21 08:26:24;;;;;;;18.70;13.90;;;7.40;99.90;;;;;;5034895;28;21030;-50
2020/12/21 08:28:51;;;;;;;26.10;15.83;;;7.20;99.90;;;;;;5034788;28;20824;-50
2020/12/21 08:31:19;;;;;;;18.93;13.87;;;7.20;99.90;;;;;;5034613;28;20837;-50
2020/12/21 08:34:03;;;;;;;22.20;16.00;;;7.30;99.90;;;;;;5034061;28;20428;-50
2020/12/21 08:36:33;;;;;;;18.17;14.53;;;7.10;99.90;;;;;;5035256;28;20459;-50
2020/12/21 08:39:08;;;;;;;23.60;15.13;;;7.20;99.90;;;;;;5034371;28;20525;-49
2020/12/21 08:41:40;;;;;;;22.87;16.87;;;7.40;99.90;;;;;;5034300;28;20823;-50
2020/12/21 08:44:08;;;;;;;21.93;15.67;;;7.00;99.90;;;;;;5033755;28;20495;-50
2020/12/21 08:46:35;;;;;;;26.40;16.33;;;7.20;99.90;;;;;;5034756;28;20492;-50
2020/12/21 08:49:01;;;;;;;19.03;15.90;;;7.20;99.90;;;;;;5033782;28;20972;-50
2020/12/21 08:51:28;;;;;;;21.13;16.50;;;7.40;99.90;;;;;;5033679;28;20819;-50
2020/12/21 08:54:05;;;;;;;20.60;15.67;;;7.20;99.90;;;;;;5039552;28;20467;-49
2020/12/21 08:56:32;;;;;;;22.67;16.27;;;7.30;99.90;;;;;;5034493;28;20437;-48
2020/12/21 08:58:59;;;;;;;23.40;16.20;;;7.40;99.90;;;;;;5034108;28;20515;-49
2020/12/21 09:01:25;;;;;;;26.07;16.20;;;7.20;99.90;;;;;;5043427;28;20440;-49
2020/12/21 09:03:52;;;;;;;24.50;16.30;;;7.40;99.90;;;;;;5053623;28;20428;-49
2020/12/21 09:06:20;;;;;;;23.03;16.80;;;7.10;99.90;;;;;;5053827;28;20484;-50
2020/12/21 09:08:46;;;;;;;25.00;15.43;;;7.00;99.90;;;;;;5089370;22;20968;-47
2020/12/21 09:11:17;;;;;;;22.10;17.40;;;7.10;99.90;;;;;;5068769;28;20506;-47
2020/12/21 09:13:44;;;;;;;21.60;17.20;;;7.10;99.90;;;;;;5052926;28;20432;-47
2020/12/21 09:16:11;;;;;;;23.60;15.80;;;7.00;99.90;;;;;;5053645;28;20442;-47
2020/12/21 09:18:37;;;;;;;20.97;16.10;;;7.00;99.90;;;;;;5056873;28;20446;-47
2020/12/21 09:21:04;;;;;;;18.57;14.97;;;7.30;99.90;;;;;;5074102;28;20484;-47
2020/12/21 09:23:32;;;;;;;19.40;16.43;;;7.20;99.90;;;;;;5073448;28;20424;-47
2020/12/21 09:25:58;;;;;;;18.37;15.27;;;7.30;99.90;;;;;;5073680;28;20436;-47
2020/12/21 09:28:25;;;;;;;23.83;17.10;;;7.20;99.90;;;;;;5073496;28;20476;-47
2020/12/21 09:30:51;;;;;;;23.20;16.53;;;6.80;99.90;;;;;;5073251;28;20470;-48
2020/12/21 09:33:19;;;;;;;23.90;17.00;;;6.80;99.90;;;;;;5071988;28;20923;-47
2020/12/21 09:35:45;;;;;;;24.93;16.50;;;6.90;99.90;;;;;;5073635;28;20533;-46
2020/12/21 09:38:12;;;;;;;20.90;15.93;;;6.90;99.90;;;;;;5072878;28;20474;-48
2020/12/21 09:40:38;;;;;;;32.10;19.67;;;7.10;99.90;;;;;;5073633;28;20495;-47
2020/12/21 09:43:05;;;;;;;40.90;25.70;;;6.80;99.90;;;;;;5073396;28;20449;-46
2020/12/21 09:45:31;;;;;;;32.60;19.67;;;6.90;99.90;;;;;;5073055;28;21003;-49
2020/12/21 09:47:58;;;;;;;24.63;17.70;;;7.10;99.90;;;;;;5072619;28;20428;-47
2020/12/21 09:50:25;;;;;;;21.53;15.87;;;7.00;99.90;;;;;;5073004;28;20458;-47
2020/12/21 09:52:52;;;;;;;25.10;16.93;;;7.30;99.90;;;;;;5072761;28;20796;-47
2020/12/21 09:55:18;;;;;;;21.53;16.13;;;7.10;99.90;;;;;;5072652;28;20453;-47
2020/12/21 09:57:45;;;;;;;22.40;15.77;;;7.10;99.90;;;;;;5072924;28;20817;-47
2020/12/21 10:00:12;;;;;;;21.77;15.07;;;7.10;99.90;;;;;;5072651;28;20490;-46
2020/12/21 10:02:38;;;;;;;18.70;15.47;;;7.30;99.90;;;;;;5090391;28;20966;-46
2020/12/21 10:05:05;;;;;;;20.43;16.70;;;7.20;99.90;;;;;;5092666;28;20462;-48
2020/12/21 10:07:33;;;;;;;22.97;15.03;;;7.40;99.90;;;;;;5085061;28;20911;-47
2020/12/21 10:09:59;;;;;;;17.40;14.57;;;7.40;99.90;;;;;;5077028;28;20493;-47
2020/12/21 10:12:26;;;;;;;22.47;16.17;;;7.50;99.90;;;;;;5092347;28;20485;-47
2020/12/21 10:14:52;;;;;;;21.40;14.90;;;7.50;99.90;;;;;;5092603;28;20430;-47
2020/12/21 10:17:19;;;;;;;23.47;15.67;;;7.60;99.90;;;;;;5092142;28;20454;-45
2020/12/21 10:19:45;;;;;;;18.67;14.43;;;7.20;99.90;;;;;;5092525;28;20466;-45
2020/12/21 10:22:12;;;;;;;26.50;15.43;;;7.30;99.90;;;;;;5092476;28;20792;-46
2020/12/21 10:24:39;;;;;;;26.73;17.43;;;7.20;99.90;;;;;;5090905;28;20491;-46
2020/12/21 10:27:06;;;;;;;24.70;17.43;;;7.20;99.90;;;;;;5092465;28;20446;-46
2020/12/21 10:29:33;;;;;;;23.83;16.47;;;7.50;99.90;;;;;;5092396;28;20503;-47
2020/12/21 10:32:00;;;;;;;19.97;15.70;;;7.50;99.90;;;;;;5092052;28;20470;-47
2020/12/21 10:34:26;;;;;;;19.47;15.43;;;7.60;99.90;;;;;;5091331;28;20504;-46
2020/12/21 10:36:53;;;;;;;20.70;14.20;;;7.20;99.90;;;;;;5091621;28;20445;-46
2020/12/21 10:39:20;;;;;;;22.27;15.10;;;7.20;99.90;;;;;;5072565;28;20475;-46
2020/12/21 10:41:48;;;;;;;20.00;14.70;;;7.10;99.90;;;;;;5071528;28;20839;-46
2020/12/21 10:44:15;;;;;;;22.93;14.07;;;7.30;99.90;;;;;;5069999;28;20459;-46
2020/12/21 10:46:42;;;;;;;21.95;17.80;;;7.40;99.90;;;;;;5070652;28;20410;-46
2020/12/21 10:49:09;;;;;;;15.57;13.87;;;7.80;99.90;;;;;;5071279;28;20314;-46
2020/12/21 10:51:36;;;;;;;19.33;13.73;;;7.50;99.90;;;;;;5071463;28;20471;-46
2020/12/21 10:54:03;;;;;;;15.47;13.00;;;7.70;99.90;;;;;;5071311;28;20427;-46
2020/12/21 10:56:30;;;;;;;16.83;13.40;;;7.70;99.90;;;;;;5071535;28;20446;-46
2020/12/21 10:58:58;;;;;;;19.63;14.20;;;7.60;99.90;;;;;;5071571;28;20637;-48
2020/12/21 11:01:24;;;;;;;16.50;13.73;;;7.60;99.90;;;;;;5080353;28;20472;-46
2020/12/21 11:03:51;;;;;;;22.40;13.70;;;7.70;99.90;;;;;;5092592;28;20430;-48
2020/12/21 11:06:22;;;;;;;16.90;14.00;;;7.60;99.90;;;;;;5091662;28;20533;-48
2020/12/21 11:08:50;;;;;;;20.77;14.33;;;7.70;99.90;;;;;;5079828;28;20478;-48
2020/12/21 11:11:25;;;;;;;16.37;11.50;;;7.70;99.90;;;;;;5085356;28;20508;-48
2020/12/21 11:13:52;;;;;;;16.20;12.23;;;7.90;99.90;;;;;;5088760;28;20450;-48
2020/12/21 11:16:19;;;;;;;12.53;10.70;;;7.90;99.90;;;;;;5090356;28;20438;-47
2020/12/21 11:18:46;;;;;;;17.90;11.97;;;7.90;99.90;;;;;;5090464;28;20446;-47
2020/12/21 11:21:13;;;;;;;21.37;11.73;;;7.80;99.90;;;;;;5090138;28;20504;-46
2020/12/21 11:23:40;;;;;;;16.30;11.90;;;7.80;99.90;;;;;;5089802;28;20443;-46
2020/12/21 11:26:06;;;;;;;18.00;13.20;;;7.90;99.90;;;;;;5090737;28;20514;-46
2020/12/21 11:28:33;;;;;;;20.10;12.80;;;8.00;99.90;;;;;;5089622;28;20478;-46
2020/12/21 11:30:59;;;;;;;16.10;11.40;;;8.00;99.90;;;;;;5090105;28;20836;-46
2020/12/21 11:33:27;;;;;;;20.67;13.33;;;7.80;99.90;;;;;;5089636;28;20438;-46
2020/12/21 11:35:53;;;;;;;15.80;12.33;;;8.00;99.90;;;;;;5090472;28;20942;-47
2020/12/21 11:38:20;;;;;;;13.70;11.40;;;8.10;99.90;;;;;;5088394;28;20463;-47
2020/12/21 11:40:47;;;;;;;18.20;13.60;;;8.00;99.90;;;;;;5089919;28;20425;-46
2020/12/21 11:43:14;;;;;;;18.30;13.90;;;8.20;99.90;;;;;;5089453;28;20202;-46
2020/12/21 11:45:41;;;;;;;18.13;12.70;;;8.10;99.90;;;;;;5088599;28;20490;-46
2020/12/21 11:48:07;;;;;;;16.17;13.00;;;8.00;99.90;;;;;;5088621;28;20504;-46
2020/12/21 11:50:35;;;;;;;15.23;11.80;;;8.30;99.90;;;;;;5089828;28;20470;-47
2020/12/21 11:53:02;;;;;;;18.00;13.00;;;8.40;99.90;;;;;;5089193;28;20901;-47
2020/12/21 11:55:29;;;;;;;14.07;12.40;;;8.10;99.90;;;;;;5089867;28;20506;-47
2020/12/21 11:57:55;;;;;;;14.80;11.93;;;8.20;99.90;;;;;;5093309;28;20464;-46
2020/12/21 12:00:22;;;;;;;14.87;11.97;;;8.00;99.90;;;;;;5092721;28;20486;-46
2020/12/21 12:02:48;;;;;;;13.60;10.73;;;7.90;99.90;;;;;;5072994;28;20423;-46
2020/12/21 12:05:15;;;;;;;17.03;11.00;;;8.20;99.90;;;;;;5073148;28;20432;-47
2020/12/21 12:07:42;;;;;;;16.27;10.67;;;8.20;99.90;;;;;;5073453;28;20447;-46
2020/12/21 12:10:08;;;;;;;13.00;10.00;;;8.20;99.90;;;;;;5057728;28;733300;-46
2020/12/21 12:12:35;;;;;;;16.10;11.50;;;8.00;99.90;;;;;;5094851;28;20475;-46
2020/12/21 12:15:02;;;;;;;16.00;10.00;;;8.30;99.90;;;;;;5094991;28;20427;-46
2020/12/21 12:17:28;;;;;;;16.80;10.37;;;8.00;99.90;;;;;;5094604;28;20847;-46
2020/12/21 12:19:55;;;;;;;18.00;11.13;;;8.00;99.90;;;;;;5094215;28;20465;-46
2020/12/21 12:22:21;;;;;;;23.50;12.00;;;8.10;99.90;;;;;;5093932;28;20492;-47
2020/12/21 12:24:49;;;;;;;15.20;10.87;;;8.00;99.90;;;;;;5094859;28;20871;-48
2020/12/21 12:27:15;;;;;;;21.07;14.10;;;8.00;99.90;;;;;;5094376;28;20469;-47
2020/12/21 12:29:42;;;;;;;15.40;11.30;;;7.80;99.90;;;;;;5094959;28;20455;-47
2020/12/21 12:32:10;;;;;;;14.47;10.90;;;8.00;99.90;;;;;;5093147;28;21009;-47
2020/12/21 12:34:37;;;;;;;17.50;13.43;;;7.90;99.90;;;;;;5094325;28;20524;-47
2020/12/21 12:37:04;;;;;;;14.43;11.83;;;8.50;99.90;;;;;;5087581;28;20508;-47